Time;durP1;ratioP1;P1;durP2;ratioP2;P2;SDS_P1;SDS_P2;PMS_P1;PMS_P2;Temp;Humidity;BMP_temperature;BMP_pressure;BME280_temperature;BME280_humidity;BME280_pressure;Samples;Min_cycle;Max_cycle;Signal;HPM_P1;HPM_P2
2023/07/14 00:00:17;;;;;;;;;;;;;;;18.24;74.76;93238.81;2051840;70;20089;-77
2023/07/14 00:02:44;;;;;;;;;;;;;;;18.27;73.80;93236.78;2053332;70;20465;-77
2023/07/14 00:05:14;;;;;;;;;;;;;;;18.26;73.95;93236.06;2051225;70;20046;-77
2023/07/14 00:07:40;;;;;;;;;;;;;;;18.37;73.43;93233.59;2051942;70;20047;-77
2023/07/14 00:10:14;;;;;;;;;;;;;;;18.28;73.98;93230.44;2047563;70;20058;-77
2023/07/14 00:12:39;;;;;;;;;;;;;;;18.33;72.76;93239.16;2050913;70;20112;-78
2023/07/14 00:15:05;;;;;;;;;;;;;;;18.27;73.85;93233.94;2051153;70;20191;-77
2023/07/14 00:17:30;;;;;;;;;;;;;;;18.08;73.56;93240.25;2054328;70;20475;-78
2023/07/14 00:19:56;;;;;;;;;;;;;;;18.18;72.75;93234.97;2051162;70;20053;-78
2023/07/14 00:22:22;;;;;;;;;;;;;;;18.10;72.36;93237.50;2051118;70;20059;-78
2023/07/14 00:25:18;;;;;;;;;;;;;;;17.99;73.14;93236.34;2051163;70;20086;-78
2023/07/14 00:27:44;;;;;;;;;;;;;;;18.02;73.09;93223.66;2049720;70;20118;-78
2023/07/14 00:30:14;;;;;;;;;;;;;;;18.04;73.11;93232.28;2051621;70;20047;-77
2023/07/14 00:32:40;;;;;;;;;;;;;;;18.08;73.53;93228.88;2048582;70;20439;-77
2023/07/14 00:35:27;;;;;;;;;;;;;;;18.08;73.39;93226.03;2051112;70;20212;-77
2023/07/14 00:37:54;;;;;;;;;;;;;;;18.04;73.96;93226.56;2051176;70;20088;-77
2023/07/14 00:40:23;;;;;;;;;;;;;;;17.99;74.72;93217.13;2051660;70;20422;-77
2023/07/14 00:42:53;;;;;;;;;;;;;;;17.93;74.97;93216.88;2051548;70;20051;-77
2023/07/14 00:45:21;;;;;;;;;;;;;;;17.87;75.37;93213.03;2047801;70;20101;-77
2023/07/14 00:47:52;;;;;;;;;;;;;;;17.91;73.75;93211.09;2051478;70;20406;-77
2023/07/14 00:50:24;;;;;;;;;;;;;;;17.92;73.98;93212.59;2048341;70;20183;-78
2023/07/14 00:52:51;;;;;;;;;;;;;;;17.93;73.84;93213.31;2051597;70;20059;-77
2023/07/14 00:55:20;;;;;;;;;;;;;;;17.85;74.15;93207.28;2051595;70;20094;-78
2023/07/14 00:57:50;;;;;;;;;;;;;;;17.77;74.71;93208.38;2051534;70;20918;-78
2023/07/14 01:00:23;;;;;;;;;;;;;;;17.73;74.66;93207.44;2050952;70;20049;-78
2023/07/14 01:02:49;;;;;;;;;;;;;;;17.76;74.70;93206.91;2051307;70;20062;-78
2023/07/14 01:05:14;;;;;;;;;;;;;;;17.78;75.21;93200.59;2050288;70;20422;-77
2023/07/14 01:07:41;;;;;;;;;;;;;;;17.67;75.81;93198.66;2048393;70;20150;-78
2023/07/14 01:10:09;;;;;;;;;;;;;;;17.81;74.98;93192.84;2051217;70;20471;-78
2023/07/14 01:12:36;;;;;;;;;;;;;;;17.77;74.39;93199.09;2050861;70;20415;-77
2023/07/14 01:15:04;;;;;;;;;;;;;;;17.67;74.53;93198.66;2047823;70;20102;-77
2023/07/14 01:17:30;;;;;;;;;;;;;;;17.59;75.63;93196.19;2051065;70;20150;-77
2023/07/14 01:20:00;;;;;;;;;;;;;;;17.68;74.91;93197.28;2054052;70;20063;-78
2023/07/14 01:22:45;;;;;;;;;;;;;;;17.57;75.96;93201.81;2051945;70;20137;-78
2023/07/14 01:25:16;;;;;;;;;;;;;;;17.43;76.36;93201.19;2051395;69;20046;-77
2023/07/14 01:27:46;;;;;;;;;;;;;;;17.52;74.76;93197.31;2047627;70;20081;-77
2023/07/14 01:30:14;;;;;;;;;;;;;;;17.53;75.06;93198.78;2044988;70;20059;-77
2023/07/14 01:32:44;;;;;;;;;;;;;;;17.73;73.90;93194.00;2049424;70;20046;-77
2023/07/14 01:35:10;;;;;;;;;;;;;;;17.75;74.46;93201.88;2051250;70;20051;-76
2023/07/14 01:37:37;;;;;;;;;;;;;;;17.74;74.11;93201.16;2053097;70;20049;-77
2023/07/14 01:40:08;;;;;;;;;;;;;;;17.67;75.56;93204.34;2051229;70;20090;-77
2023/07/14 01:42:34;;;;;;;;;;;;;;;17.72;74.89;93198.19;2047678;70;20133;-77
2023/07/14 01:44:59;;;;;;;;;;;;;;;17.70;74.96;93208.75;2052229;70;20062;-77
2023/07/14 01:47:28;;;;;;;;;;;;;;;17.70;73.22;93203.81;2047015;70;20185;-77
2023/07/14 01:49:55;;;;;;;;;;;;;;;17.67;73.62;93207.94;2050978;70;20082;-77
2023/07/14 01:52:24;;;;;;;;;;;;;;;17.71;73.35;93210.94;2052678;70;20050;-77
2023/07/14 01:54:59;;;;;;;;;;;;;;;17.67;74.67;93204.34;2050665;70;20057;-77
2023/07/14 01:57:27;;;;;;;;;;;;;;;17.66;74.29;93203.63;2050485;70;20153;-77
2023/07/14 02:00:04;;;;;;;;;;;;;;;17.61;73.55;93193.44;2049407;70;20053;-78
2023/07/14 02:02:41;;;;;;;;;;;;;;;17.67;73.84;93201.50;2051468;70;20066;-78
2023/07/14 02:05:10;;;;;;;;;;;;;;;17.46;73.87;93202.78;2053442;69;21547;-78
2023/07/14 02:07:36;;;;;;;;;;;;;;;17.53;73.81;93193.81;2051716;70;20077;-78
2023/07/14 02:10:04;;;;;;;;;;;;;;;17.48;73.67;93177.97;2050631;70;20086;-78
2023/07/14 02:12:34;;;;;;;;;;;;;;;17.39;73.56;93181.84;2048008;70;20047;-78
2023/07/14 02:15:05;;;;;;;;;;;;;;;17.33;74.37;93186.53;2046129;70;20114;-78
2023/07/14 02:17:33;;;;;;;;;;;;;;;17.38;74.10;93179.63;2052169;70;20058;-78
2023/07/14 02:20:03;;;;;;;;;;;;;;;17.31;73.55;93181.47;2048487;69;20054;-78
2023/07/14 02:22:29;;;;;;;;;;;;;;;17.31;73.59;93175.06;2050170;70;20133;-78
2023/07/14 02:24:57;;;;;;;;;;;;;;;17.25;72.61;93176.25;2047571;70;20511;-77
2023/07/14 02:27:23;;;;;;;;;;;;;;;17.25;72.98;93178.38;2048372;70;20063;-78
2023/07/14 02:29:48;;;;;;;;;;;;;;;16.95;72.23;93180.59;2051712;70;20047;-78
2023/07/14 02:32:27;;;;;;;;;;;;;;;17.03;72.81;93184.53;2048093;70;20050;-77
2023/07/14 02:34:55;;;;;;;;;;;;;;;17.00;71.55;93183.00;2048312;70;20115;-78
2023/07/14 02:37:39;;;;;;;;;;;;;;;16.90;71.49;93193.16;2050970;70;20046;-77
2023/07/14 02:40:06;;;;;;;;;;;;;;;17.01;71.25;93195.84;2051260;70;20499;-78
2023/07/14 02:42:41;;;;;;;;;;;;;;;17.00;71.58;93199.34;2048299;70;20059;-78
2023/07/14 02:45:07;;;;;;;;;;;;;;;17.19;71.10;93190.22;2052731;70;20236;-78
2023/07/14 02:47:36;;;;;;;;;;;;;;;17.15;71.04;93195.00;2053504;70;20047;-78
2023/07/14 02:50:02;;;;;;;;;;;;;;;17.00;71.46;93188.69;2046328;70;20475;-76
2023/07/14 02:52:27;;;;;;;;;;;;;;;16.89;70.79;93188.88;2045141;70;20549;-77
2023/07/14 02:54:53;;;;;;;;;;;;;;;16.96;71.20;93190.63;2045240;70;20064;-77
2023/07/14 02:57:18;;;;;;;;;;;;;;;16.98;71.09;93197.13;2045873;70;20081;-77
2023/07/14 02:59:44;;;;;;;;;;;;;;;17.09;70.55;93189.78;2048632;70;20168;-77
2023/07/14 03:02:11;;;;;;;;;;;;;;;17.12;70.20;93199.13;2052701;69;20088;-77
2023/07/14 03:04:38;;;;;;;;;;;;;;;17.17;70.50;93204.34;2051206;69;20654;-77
2023/07/14 03:07:04;;;;;;;;;;;;;;;17.18;69.96;93199.38;2048258;70;20070;-77
2023/07/14 03:09:30;;;;;;;;;;;;;;;17.08;70.24;93198.94;2050887;70;20054;-77
2023/07/14 03:11:55;;;;;;;;;;;;;;;16.93;70.04;93197.56;2049571;70;20736;-78
2023/07/14 03:14:21;;;;;;;;;;;;;;;16.96;71.07;93199.88;2045515;70;20441;-78
2023/07/14 03:16:47;;;;;;;;;;;;;;;16.57;71.85;93191.66;2048710;70;20070;-77
2023/07/14 03:19:15;;;;;;;;;;;;;;;16.71;71.50;93195.16;2048799;70;20482;-77
2023/07/14 03:21:41;;;;;;;;;;;;;;;16.84;70.94;93192.91;2047037;70;20037;-77
2023/07/14 03:24:06;;;;;;;;;;;;;;;16.96;70.16;93194.19;2050404;70;20497;-77
2023/07/14 03:26:33;;;;;;;;;;;;;;;16.86;70.63;93193.75;2053777;70;20042;-76
2023/07/14 03:28:58;;;;;;;;;;;;;;;16.78;70.83;93187.69;2049553;70;20066;-78
2023/07/14 03:31:24;;;;;;;;;;;;;;;16.77;70.20;93181.25;2050368;70;20066;-77
2023/07/14 03:33:51;;;;;;;;;;;;;;;16.75;69.66;93188.94;2050502;70;20417;-78
2023/07/14 03:36:20;;;;;;;;;;;;;;;16.86;69.38;93181.59;2051841;70;20101;-78
2023/07/14 03:38:45;;;;;;;;;;;;;;;16.79;69.82;93191.25;2051098;70;20128;-78
2023/07/14 03:41:14;;;;;;;;;;;;;;;16.66;70.01;93187.81;2050727;70;20545;-78
2023/07/14 03:43:42;;;;;;;;;;;;;;;16.60;70.11;93186.81;2051479;70;20102;-78
2023/07/14 03:46:11;;;;;;;;;;;;;;;16.46;69.68;93184.78;2050379;70;20054;-77
2023/07/14 03:48:37;;;;;;;;;;;;;;;16.50;69.38;93187.81;2049853;70;20469;-77
2023/07/14 03:51:03;;;;;;;;;;;;;;;16.56;70.34;93193.03;2052863;70;20490;-77
2023/07/14 03:53:29;;;;;;;;;;;;;;;16.45;69.47;93185.41;2051735;70;20078;-77
2023/07/14 03:55:55;;;;;;;;;;;;;;;16.51;69.88;93186.44;2051154;70;20058;-76
2023/07/14 03:58:20;;;;;;;;;;;;;;;16.36;69.58;93186.41;2050826;70;20098;-78
2023/07/14 04:00:46;;;;;;;;;;;;;;;16.47;69.37;93182.66;2047824;70;20157;-77
2023/07/14 04:03:11;;;;;;;;;;;;;;;16.19;69.73;93196.25;2051134;70;20145;-78
2023/07/14 04:05:37;;;;;;;;;;;;;;;16.15;69.93;93187.53;2050945;70;20384;-77
2023/07/14 04:08:03;;;;;;;;;;;;;;;16.23;70.21;93187.94;2052895;70;20066;-78
2023/07/14 04:10:29;;;;;;;;;;;;;;;16.19;70.38;93182.06;2050601;70;20175;-78
2023/07/14 04:12:57;;;;;;;;;;;;;;;16.18;70.04;93192.69;2053587;70;20098;-78
2023/07/14 04:15:22;;;;;;;;;;;;;;;16.16;70.19;93180.50;2050740;70;20059;-79
2023/07/14 04:17:48;;;;;;;;;;;;;;;16.20;69.46;93177.84;2052241;69;20062;-79
2023/07/14 04:20:13;;;;;;;;;;;;;;;15.95;70.39;93176.69;2054356;70;20069;-79
2023/07/14 04:22:39;;;;;;;;;;;;;;;15.89;70.53;93172.81;2051282;70;20067;-78
2023/07/14 04:25:05;;;;;;;;;;;;;;;16.04;70.67;93168.56;2052744;70;20471;-78
2023/07/14 04:27:30;;;;;;;;;;;;;;;15.99;70.08;93171.19;2050712;70;20497;-78
2023/07/14 04:29:56;;;;;;;;;;;;;;;16.18;70.40;93174.91;2051380;70;20050;-78
2023/07/14 04:32:21;;;;;;;;;;;;;;;16.39;69.61;93177.31;2051098;70;20047;-79
2023/07/14 04:34:49;;;;;;;;;;;;;;;16.47;69.71;93174.88;2047851;70;20062;-78
2023/07/14 04:37:14;;;;;;;;;;;;;;;16.40;70.13;93173.13;2050843;70;20066;-79
2023/07/14 04:39:40;;;;;;;;;;;;;;;16.27;69.90;93174.66;2050975;70;20738;-78
2023/07/14 04:42:06;;;;;;;;;;;;;;;16.57;68.70;93168.91;2051027;70;20514;-78
2023/07/14 04:44:33;;;;;;;;;;;;;;;16.50;68.50;93178.56;2051112;70;20501;-78
2023/07/14 04:46:59;;;;;;;;;;;;;;;16.48;68.22;93169.91;2047091;70;20130;-78
2023/07/14 04:49:26;;;;;;;;;;;;;;;16.34;68.75;93169.25;2046878;70;20159;-78
2023/07/14 04:51:51;;;;;;;;;;;;;;;16.54;68.36;93170.22;2046831;70;20058;-78
2023/07/14 04:54:16;;;;;;;;;;;;;;;16.74;68.55;93167.59;2050628;70;20065;-78
2023/07/14 04:56:44;;;;;;;;;;;;;;;16.83;67.59;93172.25;2047884;70;20062;-77
2023/07/14 04:59:11;;;;;;;;;;;;;;;16.75;67.40;93169.06;2050980;70;20053;-79
2023/07/14 05:01:36;;;;;;;;;;;;;;;16.76;67.46;93173.34;2050852;70;20057;-78
2023/07/14 05:04:02;;;;;;;;;;;;;;;16.82;67.32;93172.91;2053751;70;20070;-77
2023/07/14 05:06:28;;;;;;;;;;;;;;;16.38;67.32;93175.88;2053408;70;20739;-76
2023/07/14 05:08:53;;;;;;;;;;;;;;;16.27;67.98;93163.28;2050920;70;20106;-76
2023/07/14 05:11:19;;;;;;;;;;;;;;;16.46;67.81;93164.16;2050860;70;20059;-76
2023/07/14 05:13:45;;;;;;;;;;;;;;;16.65;67.54;93157.94;2050760;70;20132;-77
2023/07/14 05:16:11;;;;;;;;;;;;;;;16.32;67.64;93169.91;2047672;70;20058;-77
2023/07/14 05:18:36;;;;;;;;;;;;;;;16.38;68.90;93161.66;2047916;70;20047;-77
2023/07/14 05:21:05;;;;;;;;;;;;;;;16.60;67.35;93161.22;2049665;70;20043;-76
2023/07/14 05:23:30;;;;;;;;;;;;;;;16.69;66.81;93165.91;2053112;70;20058;-77
2023/07/14 05:25:56;;;;;;;;;;;;;;;16.67;66.79;93157.28;2052452;70;20051;-77
2023/07/14 05:28:22;;;;;;;;;;;;;;;16.91;66.30;93157.69;2053903;70;20146;-75
2023/07/14 05:30:47;;;;;;;;;;;;;;;16.76;66.20;93159.88;2050669;70;20180;-75
2023/07/14 05:33:16;;;;;;;;;;;;;;;16.77;66.52;93155.66;2050117;70;20070;-76
2023/07/14 05:35:45;;;;;;;;;;;;;;;16.86;67.16;93158.84;2052830;70;20057;-78
2023/07/14 05:38:11;;;;;;;;;;;;;;;16.92;66.60;93159.88;2051865;69;20054;-76
2023/07/14 05:40:36;;;;;;;;;;;;;;;16.76;66.28;93167.66;2052236;70;20431;-77
2023/07/14 05:43:02;;;;;;;;;;;;;;;16.87;67.03;93166.75;2051422;70;20091;-78
2023/07/14 05:45:27;;;;;;;;;;;;;;;16.78;66.07;93162.09;2051830;70;20180;-78
2023/07/14 05:47:53;;;;;;;;;;;;;;;16.63;66.18;93166.38;2050793;70;20058;-78
2023/07/14 05:50:19;;;;;;;;;;;;;;;16.64;66.11;93156.47;2051174;70;20097;-78
2023/07/14 05:52:45;;;;;;;;;;;;;;;16.08;68.20;93163.81;2053976;70;20042;-78
2023/07/14 05:55:11;;;;;;;;;;;;;;;16.59;67.40;93156.94;2049128;70;20066;-77
2023/07/14 05:57:36;;;;;;;;;;;;;;;16.83;66.87;93155.22;2047248;70;20058;-78
2023/07/14 06:00:12;;;;;;;;;;;;;;;16.52;67.14;93159.47;2048126;70;20506;-78
2023/07/14 06:02:49;;;;;;;;;;;;;;;16.77;66.51;93161.34;2047934;70;20051;-77
2023/07/14 06:05:15;;;;;;;;;;;;;;;16.58;66.40;93163.97;2048248;70;20059;-77
2023/07/14 06:07:40;;;;;;;;;;;;;;;16.37;66.82;93162.31;2050014;70;20073;-78
2023/07/14 06:10:06;;;;;;;;;;;;;;;16.39;66.80;93157.44;2048245;70;20054;-76
2023/07/14 06:12:32;;;;;;;;;;;;;;;16.35;67.12;93150.84;2051571;70;20058;-78
2023/07/14 06:15:00;;;;;;;;;;;;;;;16.42;67.95;93141.97;2048415;70;20057;-78
2023/07/14 06:17:28;;;;;;;;;;;;;;;16.53;67.08;93135.34;2046829;70;20082;-77
2023/07/14 06:19:53;;;;;;;;;;;;;;;16.70;66.77;93131.16;2047005;70;20062;-76
2023/07/14 06:22:22;;;;;;;;;;;;;;;16.79;66.85;93132.28;2048561;70;20043;-77
2023/07/14 06:24:48;;;;;;;;;;;;;;;16.83;66.73;93134.56;2051443;70;20519;-77
2023/07/14 06:27:14;;;;;;;;;;;;;;;17.16;66.81;93133.88;2050991;70;20137;-77
2023/07/14 06:29:39;;;;;;;;;;;;;;;17.34;64.43;93131.81;2051634;69;20478;-79
2023/07/14 06:32:05;;;;;;;;;;;;;;;16.69;66.13;93138.22;2051237;70;20066;-78
2023/07/14 06:34:31;;;;;;;;;;;;;;;16.70;67.57;93138.94;2050388;70;20054;-78
2023/07/14 06:36:57;;;;;;;;;;;;;;;17.12;66.76;93140.13;2051349;70;20125;-78
2023/07/14 06:39:23;;;;;;;;;;;;;;;17.38;65.41;93134.84;2047688;70;20514;-79
2023/07/14 06:41:49;;;;;;;;;;;;;;;17.50;66.22;93128.91;2051215;70;20201;-79
2023/07/14 06:44:15;;;;;;;;;;;;;;;17.39;65.93;93130.59;2051568;70;20047;-79
2023/07/14 06:46:41;;;;;;;;;;;;;;;17.49;65.29;93122.50;2051967;70;20061;-79
2023/07/14 06:49:09;;;;;;;;;;;;;;;17.71;64.23;93116.25;2051686;70;20055;-79
2023/07/14 06:51:35;;;;;;;;;;;;;;;17.81;63.69;93108.16;2051596;70;20066;-79
2023/07/14 06:54:01;;;;;;;;;;;;;;;17.88;64.38;93109.16;2052169;70;20050;-79
2023/07/14 06:56:26;;;;;;;;;;;;;;;17.93;65.24;93100.13;2052361;70;20043;-80
2023/07/14 06:58:52;;;;;;;;;;;;;;;17.63;65.59;93101.69;2048899;70;20100;-81
2023/07/14 07:01:21;;;;;;;;;;;;;;;17.85;65.88;93096.94;2051986;70;20050;-80
2023/07/14 07:03:47;;;;;;;;;;;;;;;18.04;66.13;93096.25;2051052;70;20134;-79
2023/07/14 07:06:16;;;;;;;;;;;;;;;17.88;65.82;93075.69;2051691;70;20039;-80
2023/07/14 07:08:42;;;;;;;;;;;;;;;18.09;64.89;93087.88;2051580;70;20050;-79
2023/07/14 07:11:09;;;;;;;;;;;;;;;18.01;66.16;93080.50;2050994;69;20039;-79
2023/07/14 07:13:35;;;;;;;;;;;;;;;18.10;64.69;93075.09;2051932;70;20051;-80
2023/07/14 07:16:00;;;;;;;;;;;;;;;18.40;65.27;93072.69;2052225;70;20184;-80
2023/07/14 07:18:26;;;;;;;;;;;;;;;18.39;63.95;93071.22;2048726;70;20043;-81
2023/07/14 07:20:55;;;;;;;;;;;;;;;18.36;63.04;93078.25;2052319;70;20082;-80
2023/07/14 07:23:20;;;;;;;;;;;;;;;18.28;61.63;93073.72;2052171;70;20053;-80
2023/07/14 07:25:49;;;;;;;;;;;;;;;18.19;61.67;93068.31;2052613;70;20426;-81
2023/07/14 07:28:15;;;;;;;;;;;;;;;18.42;61.73;93070.66;2052676;70;20082;-80
2023/07/14 07:30:44;;;;;;;;;;;;;;;18.50;60.91;93068.09;2049391;70;20051;-80
2023/07/14 07:33:09;;;;;;;;;;;;;;;18.49;60.64;93063.78;2051198;70;20145;-81
2023/07/14 07:35:38;;;;;;;;;;;;;;;18.71;61.24;93066.03;2048574;70;20145;-81
2023/07/14 07:38:04;;;;;;;;;;;;;;;18.87;61.24;93060.91;2052368;70;20055;-80
2023/07/14 07:40:30;;;;;;;;;;;;;;;19.01;63.93;93066.38;2052328;70;20053;-79
2023/07/14 07:42:55;;;;;;;;;;;;;;;18.86;60.57;93050.16;2051141;70;20161;-79
2023/07/14 07:45:21;;;;;;;;;;;;;;;18.90;59.94;93044.59;2051978;70;20086;-81
2023/07/14 07:47:47;;;;;;;;;;;;;;;19.03;59.26;93044.38;2051802;70;20172;-79
2023/07/14 07:50:13;;;;;;;;;;;;;;;19.36;59.71;93036.91;2052124;70;20059;-80
2023/07/14 07:52:38;;;;;;;;;;;;;;;19.54;58.97;93028.22;2052132;70;20446;-79
2023/07/14 07:55:04;;;;;;;;;;;;;;;19.77;59.32;93024.00;2052086;70;20051;-81
2023/07/14 07:57:30;;;;;;;;;;;;;;;19.93;61.79;93021.66;2052216;70;20076;-80
2023/07/14 07:59:55;;;;;;;;;;;;;;;20.13;61.86;93018.69;2052018;70;20119;-80
2023/07/14 08:02:21;;;;;;;;;;;;;;;20.28;62.61;93019.84;2048907;70;20022;-81
2023/07/14 08:04:49;;;;;;;;;;;;;;;20.45;59.35;93013.19;2052108;70;20062;-80
2023/07/14 08:07:16;;;;;;;;;;;;;;;20.46;57.53;93011.78;2048588;70;20082;-81
2023/07/14 08:09:41;;;;;;;;;;;;;;;20.87;58.80;93003.66;2052343;70;20050;-80
2023/07/14 08:12:07;;;;;;;;;;;;;;;21.23;57.17;93006.78;2052084;70;20051;-80
2023/07/14 08:14:48;;;;;;;;;;;;;;;21.51;56.64;93009.66;2049026;70;20051;-80
2023/07/14 08:17:16;;;;;;;;;;;;;;;21.80;49.65;93002.47;2052106;70;20089;-79
2023/07/14 08:19:45;;;;;;;;;;;;;;;22.20;49.77;93002.00;2051780;70;20042;-81
2023/07/14 08:22:10;;;;;;;;;;;;;;;22.15;49.50;92994.72;2051705;70;20061;-80
2023/07/14 08:24:36;;;;;;;;;;;;;;;22.20;51.57;92999.13;2048844;70;20047;-80
2023/07/14 08:27:01;;;;;;;;;;;;;;;22.70;48.39;92996.59;2051834;70;20486;-81
2023/07/14 08:29:26;;;;;;;;;;;;;;;22.84;48.34;92996.16;2051768;70;20166;-80
2023/07/14 08:31:52;;;;;;;;;;;;;;;23.05;48.65;92995.19;2052069;70;20430;-80
2023/07/14 08:34:18;;;;;;;;;;;;;;;23.21;48.49;92979.66;2051861;70;20055;-80
2023/07/14 08:36:48;;;;;;;;;;;;;;;23.70;47.24;92983.41;2052088;70;20039;-81
2023/07/14 08:39:14;;;;;;;;;;;;;;;23.88;47.14;92977.22;2051818;70;20142;-81
2023/07/14 08:41:41;;;;;;;;;;;;;;;23.76;45.18;92972.72;2052272;70;20137;-81
2023/07/14 08:44:08;;;;;;;;;;;;;;;24.04;46.11;92969.56;2052052;70;20050;-80
2023/07/14 08:46:38;;;;;;;;;;;;;;;24.69;47.30;92960.38;2048958;70;20053;-80
2023/07/14 08:49:16;;;;;;;;;;;;;;;24.92;47.20;92964.97;2051858;70;20134;-80
2023/07/14 08:51:44;;;;;;;;;;;;;;;25.07;49.46;92957.97;2051779;70;20066;-81
2023/07/14 08:54:15;;;;;;;;;;;;;;;25.26;43.20;92952.41;2052031;70;20039;-80
2023/07/14 08:56:41;;;;;;;;;;;;;;;25.33;45.02;92951.03;2052104;70;20090;-81
2023/07/14 08:59:13;;;;;;;;;;;;;;;25.20;44.18;92960.97;2048983;70;20082;-80
2023/07/14 09:01:46;;;;;;;;;;;;;;;25.39;43.97;92950.38;2051612;70;20066;-80
2023/07/14 09:04:15;;;;;;;;;;;;;;;24.65;43.52;92943.06;2052013;70;20065;-81
2023/07/14 09:06:41;;;;;;;;;;;;;;;25.12;44.53;92949.38;2051990;70;20051;-80
2023/07/14 09:09:12;;;;;;;;;;;;;;;25.76;43.80;92943.50;2048510;70;20130;-81
2023/07/14 09:11:41;;;;;;;;;;;;;;;26.10;42.53;92948.06;2051797;70;20234;-81
2023/07/14 09:14:15;;;;;;;;;;;;;;;26.51;41.23;92940.41;2052285;70;20514;-80
2023/07/14 09:16:46;;;;;;;;;;;;;;;26.97;42.67;92939.16;2052122;70;20061;-81
2023/07/14 09:19:17;;;;;;;;;;;;;;;26.71;42.55;92936.91;2051774;70;21436;-81
2023/07/14 09:21:58;;;;;;;;;;;;;;;26.26;40.42;92930.16;2051418;70;20120;-81
2023/07/14 09:24:43;;;;;;;;;;;;;;;27.25;39.78;92926.25;2052121;70;20062;-81
2023/07/14 09:27:13;;;;;;;;;;;;;;;27.42;40.88;92919.03;2052148;70;20046;-81
2023/07/14 09:29:41;;;;;;;;;;;;;;;27.88;39.17;92916.91;2051972;70;20129;-80
2023/07/14 09:32:32;;;;;;;;;;;;;;;28.41;38.86;92914.69;2053581;70;20047;-80
2023/07/14 09:35:09;;;;;;;;;;;;;;;27.98;40.06;92916.91;2051495;70;20093;-82
2023/07/14 09:37:43;;;;;;;;;;;;;;;29.38;37.22;92913.53;2051452;70;20135;-82
2023/07/14 09:40:15;;;;;;;;;;;;;;;29.73;36.93;92901.69;2051784;70;20081;-80
2023/07/14 09:42:41;;;;;;;;;;;;;;;30.13;37.03;92905.72;2052007;70;20054;-81
2023/07/14 09:45:27;;;;;;;;;;;;;;;29.17;33.49;92911.50;2051781;70;20053;-80
2023/07/14 09:48:11;;;;;;;;;;;;;;;28.88;35.98;92894.25;2051982;70;20066;-82
2023/07/14 09:50:39;;;;;;;;;;;;;;;30.05;33.92;92894.19;2052133;70;20051;-82
2023/07/14 09:53:07;;;;;;;;;;;;;;;30.59;33.90;92889.28;2051829;70;20563;-81
2023/07/14 09:55:59;;;;;;;;;;;;;;;30.38;34.48;92883.00;2048603;70;20062;-82
2023/07/14 09:58:26;;;;;;;;;;;;;;;29.93;33.19;92880.50;2051567;70;20198;-83
2023/07/14 10:00:54;;;;;;;;;;;;;;;30.28;34.79;92880.91;2051805;70;20434;-82
2023/07/14 10:03:20;;;;;;;;;;;;;;;29.48;35.61;92883.75;2052201;70;20066;-83
2023/07/14 10:05:54;;;;;;;;;;;;;;;30.48;33.61;92879.97;2052333;70;20117;-85
2023/07/14 10:08:28;;;;;;;;;;;;;;;30.80;34.01;92878.19;2051922;70;20139;-83
2023/07/14 10:10:55;;;;;;;;;;;;;;;31.62;35.22;92866.88;2052003;70;20053;-82
2023/07/14 10:13:22;;;;;;;;;;;;;;;31.29;33.75;92868.81;2052276;70;20051;-83
2023/07/14 10:15:53;;;;;;;;;;;;;;;31.31;33.71;92863.69;2052234;70;20051;-83
2023/07/14 10:18:19;;;;;;;;;;;;;;;29.73;32.92;92857.47;2052239;70;20462;-81
2023/07/14 10:20:58;;;;;;;;;;;;;;;30.72;32.83;92855.75;2051900;70;20047;-82
2023/07/14 10:23:25;;;;;;;;;;;;;;;30.85;32.81;92856.31;2051549;70;20138;-81
2023/07/14 10:25:53;;;;;;;;;;;;;;;31.82;31.46;92856.38;2051419;70;20043;-79
2023/07/14 10:28:28;;;;;;;;;;;;;;;32.01;30.69;92856.78;2051727;70;20051;-84
2023/07/14 10:31:00;;;;;;;;;;;;;;;31.43;29.90;92850.44;2051953;70;20050;-85
2023/07/14 10:33:29;;;;;;;;;;;;;;;32.87;31.23;92838.41;2051830;70;20059;-84
2023/07/14 10:36:21;;;;;;;;;;;;;;;33.18;29.73;92838.50;2052006;70;20054;-81
2023/07/14 10:38:52;;;;;;;;;;;;;;;33.47;29.26;92834.94;2050952;70;20101;-82
2023/07/14 10:41:22;;;;;;;;;;;;;;;33.17;29.97;92831.22;2048477;70;20059;-83
2023/07/14 10:43:49;;;;;;;;;;;;;;;33.48;29.08;92822.50;2051680;70;20522;-82
2023/07/14 10:46:19;;;;;;;;;;;;;;;35.89;28.46;92830.41;2052135;70;20226;-81
2023/07/14 10:49:00;;;;;;;;;;;;;;;36.46;26.08;92825.59;2052177;70;20391;-82
2023/07/14 10:51:43;;;;;;;;;;;;;;;35.68;26.69;92821.56;2052480;70;20142;-81
2023/07/14 10:54:21;;;;;;;;;;;;;;;37.71;25.64;92827.53;2052324;70;20042;-82
2023/07/14 10:56:48;;;;;;;;;;;;;;;36.19;24.86;92822.84;2052274;70;20061;-81
2023/07/14 10:59:23;;;;;;;;;;;;;;;38.27;22.52;92817.91;2052492;70;20054;-81
2023/07/14 11:01:56;;;;;;;;;;;;;;;39.56;21.83;92812.91;2049136;70;20050;-82
2023/07/14 11:04:31;;;;;;;;;;;;;;;40.07;20.83;92812.66;2052416;70;20058;-82
2023/07/14 11:09:57;;;;;;;;;;;;;;;40.61;20.93;92806.28;2043050;70;20652;-82
2023/07/14 11:12:44;;;;;;;;;;;;;;;40.22;21.97;92795.72;2044440;70;20539;-82
2023/07/14 11:15:17;;;;;;;;;;;;;;;38.45;22.14;92792.19;2043959;70;20462;-82
2023/07/14 11:17:48;;;;;;;;;;;;;;;41.93;20.41;92806.56;2042442;70;20542;-82
2023/07/14 11:20:19;;;;;;;;;;;;;;;44.02;18.24;92797.56;2043410;70;20103;-81
2023/07/14 11:22:56;;;;;;;;;;;;;;;45.16;18.54;92795.81;2041043;70;20119;-82
2023/07/14 11:25:29;;;;;;;;;;;;;;;46.10;17.19;92786.84;2043979;70;20071;-82
2023/07/14 11:27:59;;;;;;;;;;;;;;;47.05;16.38;92783.44;2038723;70;20139;-82
2023/07/14 11:30:32;;;;;;;;;;;;;;;47.68;16.87;92771.81;2038257;70;20048;-82
2023/07/14 11:33:04;;;;;;;;;;;;;;;44.76;18.10;92769.63;2042461;70;20094;-81
2023/07/14 11:35:33;;;;;;;;;;;;;;;46.11;16.57;92773.38;2043351;70;20098;-83
2023/07/14 11:38:17;;;;;;;;;;;;;;;48.29;15.10;92782.41;2044142;70;20079;-83
2023/07/14 11:40:45;;;;;;;;;;;;;;;50.42;15.05;92773.69;2044652;70;20055;-83
2023/07/14 11:43:17;;;;;;;;;;;;;;;50.26;13.81;92766.19;2044193;70;20051;-82
2023/07/14 11:45:45;;;;;;;;;;;;;;;50.78;14.81;92751.63;2044814;70;20129;-83
2023/07/14 11:48:21;;;;;;;;;;;;;;;50.32;14.93;92753.69;2048388;70;20084;-83
2023/07/14 11:51:01;;;;;;;;;;;;;;;51.20;13.72;92746.22;2050207;70;20121;-84
2023/07/14 11:53:31;;;;;;;;;;;;;;;50.98;12.93;92751.34;2048555;70;20055;-82
2023/07/14 11:56:12;;;;;;;;;;;;;;;50.81;13.86;92737.84;2048951;70;20396;-83
2023/07/14 11:58:39;;;;;;;;;;;;;;;50.43;13.21;92735.47;2052014;70;20061;-83
2023/07/14 12:01:27;;;;;;;;;;;;;;;51.63;13.14;92738.41;2051980;70;20055;-82
2023/07/14 12:03:56;;;;;;;;;;;;;;;51.88;12.10;92734.47;2048781;70;20050;-83
2023/07/14 12:06:24;;;;;;;;;;;;;;;51.41;12.51;92732.25;2052186;70;20055;-82
2023/07/14 12:08:56;;;;;;;;;;;;;;;53.04;12.22;92728.09;2051764;70;20062;-82
2023/07/14 12:11:26;;;;;;;;;;;;;;;49.62;12.59;92705.34;2052022;70;20477;-83
2023/07/14 12:13:53;;;;;;;;;;;;;;;50.85;13.26;92709.84;2052020;70;20138;-82
2023/07/14 12:16:24;;;;;;;;;;;;;;;51.98;10.80;92714.75;2050949;70;20062;-82
2023/07/14 12:19:20;;;;;;;;;;;;;;;53.12;11.39;92708.53;2050830;70;20157;-82
2023/07/14 12:21:54;;;;;;;;;;;;;;;49.17;13.35;92688.41;2051666;70;20169;-83
2023/07/14 12:24:22;;;;;;;;;;;;;;;53.75;11.27;92696.59;2048494;70;20170;-82
2023/07/14 12:26:52;;;;;;;;;;;;;;;53.88;10.26;92689.97;2051835;70;20061;-82
2023/07/14 12:29:18;;;;;;;;;;;;;;;47.84;13.04;92666.81;2048929;70;20063;-82
2023/07/14 12:31:51;;;;;;;;;;;;;;;50.69;12.87;92681.41;2052206;70;20066;-81
2023/07/14 12:34:17;;;;;;;;;;;;;;;46.07;16.24;92663.59;2052160;70;20062;-81
2023/07/14 12:36:42;;;;;;;;;;;;;;;46.94;15.88;92658.44;2052298;70;20058;-81
2023/07/14 12:39:09;;;;;;;;;;;;;;;42.97;18.14;92645.75;2051949;70;20053;-81
2023/07/14 12:41:37;;;;;;;;;;;;;;;41.82;19.73;92643.88;2052200;70;20051;-82
2023/07/14 12:44:02;;;;;;;;;;;;;;;42.09;20.83;92639.31;2051932;70;20130;-83
2023/07/14 12:46:30;;;;;;;;;;;;;;;39.79;21.96;92626.22;2052222;70;20150;-83
2023/07/14 12:49:15;;;;;;;;;;;;;;;38.50;21.30;92628.78;2051801;70;20051;-83
2023/07/14 12:51:41;;;;;;;;;;;;;;;39.41;19.60;92623.00;2052168;70;20047;-83
2023/07/14 12:54:13;;;;;;;;;;;;;;;37.79;20.53;92609.84;2048966;70;20057;-82
2023/07/14 12:56:39;;;;;;;;;;;;;;;39.38;21.13;92620.16;2052135;70;20050;-82
2023/07/14 12:59:11;;;;;;;;;;;;;;;38.21;22.40;92608.75;2051890;70;20071;-82